sensor_id;sensor_type;location;lat;lon;timestamp;temperature;humidity
2893;DHT22;1456;51.840;12.184;2023-04-07T00:00:29;2.80;93.60
2893;DHT22;1456;51.840;12.184;2023-04-07T00:02:58;2.80;93.40
2893;DHT22;1456;51.840;12.184;2023-04-07T00:05:24;2.70;93.50
2893;DHT22;1456;51.840;12.184;2023-04-07T00:07:50;2.70;93.80
2893;DHT22;1456;51.840;12.184;2023-04-07T00:10:17;2.70;93.80
2893;DHT22;1456;51.840;12.184;2023-04-07T00:12:45;2.70;93.90
2893;DHT22;1456;51.840;12.184;2023-04-07T00:15:11;2.60;94.10
2893;DHT22;1456;51.840;12.184;2023-04-07T00:17:38;2.60;94.20
2893;DHT22;1456;51.840;12.184;2023-04-07T00:20:06;2.60;94.40
2893;DHT22;1456;51.840;12.184;2023-04-07T00:22:32;2.50;94.60
2893;DHT22;1456;51.840;12.184;2023-04-07T00:24:58;2.50;94.60
2893;DHT22;1456;51.840;12.184;2023-04-07T00:27:24;2.50;94.80
2893;DHT22;1456;51.840;12.184;2023-04-07T00:29:54;2.40;94.70
2893;DHT22;1456;51.840;12.184;2023-04-07T00:32:20;2.40;94.50
2893;DHT22;1456;51.840;12.184;2023-04-07T00:34:47;2.30;94.60
2893;DHT22;1456;51.840;12.184;2023-04-07T00:37:13;2.30;94.60
2893;DHT22;1456;51.840;12.184;2023-04-07T00:39:43;2.30;94.80
2893;DHT22;1456;51.840;12.184;2023-04-07T00:42:10;2.20;94.90
2893;DHT22;1456;51.840;12.184;2023-04-07T00:44:42;2.20;95.00
2893;DHT22;1456;51.840;12.184;2023-04-07T00:47:09;2.20;94.90
2893;DHT22;1456;51.840;12.184;2023-04-07T00:49:41;2.20;95.00
2893;DHT22;1456;51.840;12.184;2023-04-07T00:52:08;2.20;95.20
2893;DHT22;1456;51.840;12.184;2023-04-07T00:54:36;2.10;95.30
2893;DHT22;1456;51.840;12.184;2023-04-07T00:57:16;2.10;95.40
2893;DHT22;1456;51.840;12.184;2023-04-07T00:59:43;2.00;95.30
2893;DHT22;1456;51.840;12.184;2023-04-07T01:02:10;2.10;95.60
2893;DHT22;1456;51.840;12.184;2023-04-07T01:04:46;2.00;95.70
2893;DHT22;1456;51.840;12.184;2023-04-07T01:10:00;2.00;95.50
2893;DHT22;1456;51.840;12.184;2023-04-07T01:15:12;2.00;95.80
2893;DHT22;1456;51.840;12.184;2023-04-07T01:17:41;2.10;96.00
2893;DHT22;1456;51.840;12.184;2023-04-07T01:20:08;2.00;96.00
2893;DHT22;1456;51.840;12.184;2023-04-07T01:22:50;1.90;95.60
2893;DHT22;1456;51.840;12.184;2023-04-07T01:33:17;1.80;96.00
2893;DHT22;1456;51.840;12.184;2023-04-07T01:35:48;1.80;96.10
2893;DHT22;1456;51.840;12.184;2023-04-07T01:38:20;1.80;96.00
2893;DHT22;1456;51.840;12.184;2023-04-07T01:40:47;1.80;96.00
2893;DHT22;1456;51.840;12.184;2023-04-07T01:43:16;1.80;96.20
2893;DHT22;1456;51.840;12.184;2023-04-07T01:45:55;1.80;96.10
2893;DHT22;1456;51.840;12.184;2023-04-07T01:48:34;1.70;95.90
2893;DHT22;1456;51.840;12.184;2023-04-07T01:51:05;1.80;96.10
2893;DHT22;1456;51.840;12.184;2023-04-07T01:53:31;1.70;96.20
2893;DHT22;1456;51.840;12.184;2023-04-07T01:56:00;1.70;96.30
2893;DHT22;1456;51.840;12.184;2023-04-07T01:58:27;1.70;96.30
2893;DHT22;1456;51.840;12.184;2023-04-07T02:00:59;1.70;96.40
2893;DHT22;1456;51.840;12.184;2023-04-07T02:03:30;1.70;96.40
2893;DHT22;1456;51.840;12.184;2023-04-07T02:06:03;1.70;96.30
2893;DHT22;1456;51.840;12.184;2023-04-07T02:08:37;1.60;96.20
2893;DHT22;1456;51.840;12.184;2023-04-07T02:11:08;1.60;96.60
2893;DHT22;1456;51.840;12.184;2023-04-07T02:13:35;1.60;96.60
2893;DHT22;1456;51.840;12.184;2023-04-07T02:16:01;1.60;96.70
2893;DHT22;1456;51.840;12.184;2023-04-07T02:18:30;1.60;96.70
2893;DHT22;1456;51.840;12.184;2023-04-07T02:21:03;1.60;96.60
2893;DHT22;1456;51.840;12.184;2023-04-07T02:23:30;1.60;96.80
2893;DHT22;1456;51.840;12.184;2023-04-07T02:25:56;1.60;96.80
2893;DHT22;1456;51.840;12.184;2023-04-07T02:28:36;1.50;96.90
2893;DHT22;1456;51.840;12.184;2023-04-07T02:31:02;1.50;96.90
2893;DHT22;1456;51.840;12.184;2023-04-07T02:33:27;1.50;96.80
2893;DHT22;1456;51.840;12.184;2023-04-07T02:35:52;1.50;97.00
2893;DHT22;1456;51.840;12.184;2023-04-07T02:41:08;1.40;97.20
2893;DHT22;1456;51.840;12.184;2023-04-07T02:43:34;1.40;97.30
2893;DHT22;1456;51.840;12.184;2023-04-07T02:46:06;1.30;97.20
2893;DHT22;1456;51.840;12.184;2023-04-07T02:48:33;1.30;97.10
2893;DHT22;1456;51.840;12.184;2023-04-07T02:51:13;1.30;97.40
2893;DHT22;1456;51.840;12.184;2023-04-07T02:53:48;1.30;97.30
2893;DHT22;1456;51.840;12.184;2023-04-07T02:56:14;1.20;97.40
2893;DHT22;1456;51.840;12.184;2023-04-07T02:58:40;1.20;97.60
2893;DHT22;1456;51.840;12.184;2023-04-07T03:01:06;1.20;97.50
2893;DHT22;1456;51.840;12.184;2023-04-07T03:03:33;1.20;97.80
2893;DHT22;1456;51.840;12.184;2023-04-07T03:06:03;1.10;97.70
2893;DHT22;1456;51.840;12.184;2023-04-07T03:08:28;1.10;98.00
2893;DHT22;1456;51.840;12.184;2023-04-07T03:10:55;1.10;98.00
2893;DHT22;1456;51.840;12.184;2023-04-07T03:13:22;1.10;98.00
2893;DHT22;1456;51.840;12.184;2023-04-07T03:15:53;1.10;98.00
2893;DHT22;1456;51.840;12.184;2023-04-07T03:18:20;1.10;98.00
2893;DHT22;1456;51.840;12.184;2023-04-07T03:20:55;1.10;98.00
2893;DHT22;1456;51.840;12.184;2023-04-07T03:25:52;1.00;98.20
2893;DHT22;1456;51.840;12.184;2023-04-07T03:28:20;1.00;98.20
2893;DHT22;1456;51.840;12.184;2023-04-07T03:30:45;1.00;98.20
2893;DHT22;1456;51.840;12.184;2023-04-07T03:33:11;1.00;98.40
2893;DHT22;1456;51.840;12.184;2023-04-07T03:35:42;1.00;98.30
2893;DHT22;1456;51.840;12.184;2023-04-07T03:38:08;1.00;98.50
2893;DHT22;1456;51.840;12.184;2023-04-07T03:40:39;0.90;98.50
2893;DHT22;1456;51.840;12.184;2023-04-07T03:43:14;0.90;98.40
2893;DHT22;1456;51.840;12.184;2023-04-07T03:45:45;0.90;98.60
2893;DHT22;1456;51.840;12.184;2023-04-07T03:48:11;0.90;98.40
2893;DHT22;1456;51.840;12.184;2023-04-07T03:50:37;0.90;98.40
2893;DHT22;1456;51.840;12.184;2023-04-07T03:53:04;0.80;98.40
2893;DHT22;1456;51.840;12.184;2023-04-07T03:55:33;0.80;98.60
2893;DHT22;1456;51.840;12.184;2023-04-07T03:58:00;0.80;98.80
2893;DHT22;1456;51.840;12.184;2023-04-07T04:00:26;0.80;99.00
2893;DHT22;1456;51.840;12.184;2023-04-07T04:02:56;0.80;99.00
2893;DHT22;1456;51.840;12.184;2023-04-07T04:05:27;0.80;99.10
2893;DHT22;1456;51.840;12.184;2023-04-07T04:08:00;0.80;99.20
2893;DHT22;1456;51.840;12.184;2023-04-07T04:10:25;0.80;99.10
2893;DHT22;1456;51.840;12.184;2023-04-07T04:12:51;0.80;99.10
2893;DHT22;1456;51.840;12.184;2023-04-07T04:15:19;0.70;99.00
2893;DHT22;1456;51.840;12.184;2023-04-07T04:17:44;0.70;99.30
2893;DHT22;1456;51.840;12.184;2023-04-07T04:20:10;0.70;99.40
2893;DHT22;1456;51.840;12.184;2023-04-07T04:22:35;0.70;99.60
2893;DHT22;1456;51.840;12.184;2023-04-07T04:25:03;0.60;99.30
2893;DHT22;1456;51.840;12.184;2023-04-07T04:27:30;0.60;99.50
2893;DHT22;1456;51.840;12.184;2023-04-07T04:29:56;0.60;99.60
2893;DHT22;1456;51.840;12.184;2023-04-07T04:32:23;0.70;99.60
2893;DHT22;1456;51.840;12.184;2023-04-07T04:34:48;0.60;99.60
2893;DHT22;1456;51.840;12.184;2023-04-07T04:39:48;0.50;99.70
2893;DHT22;1456;51.840;12.184;2023-04-07T04:42:15;0.50;99.80
2893;DHT22;1456;51.840;12.184;2023-04-07T04:47:30;0.60;99.80
2893;DHT22;1456;51.840;12.184;2023-04-07T04:49:58;0.60;99.90
2893;DHT22;1456;51.840;12.184;2023-04-07T04:52:25;0.50;99.90
2893;DHT22;1456;51.840;12.184;2023-04-07T04:54:55;0.60;99.90
2893;DHT22;1456;51.840;12.184;2023-04-07T04:57:23;0.60;99.90
2893;DHT22;1456;51.840;12.184;2023-04-07T04:59:48;0.60;99.90
2893;DHT22;1456;51.840;12.184;2023-04-07T05:02:24;0.60;99.90
2893;DHT22;1456;51.840;12.184;2023-04-07T05:04:49;0.70;99.90
2893;DHT22;1456;51.840;12.184;2023-04-07T05:07:15;0.70;99.90
2893;DHT22;1456;51.840;12.184;2023-04-07T05:09:46;0.70;99.90
2893;DHT22;1456;51.840;12.184;2023-04-07T05:12:11;0.80;99.90
2893;DHT22;1456;51.840;12.184;2023-04-07T05:14:38;0.90;99.90
2893;DHT22;1456;51.840;12.184;2023-04-07T05:17:03;1.00;99.70
2893;DHT22;1456;51.840;12.184;2023-04-07T05:19:31;1.10;99.60
2893;DHT22;1456;51.840;12.184;2023-04-07T05:22:00;1.20;99.50
2893;DHT22;1456;51.840;12.184;2023-04-07T05:24:27;1.40;99.50
2893;DHT22;1456;51.840;12.184;2023-04-07T05:26:54;1.60;99.60
2893;DHT22;1456;51.840;12.184;2023-04-07T05:29:24;1.70;98.90
2893;DHT22;1456;51.840;12.184;2023-04-07T05:31:50;1.80;98.80
2893;DHT22;1456;51.840;12.184;2023-04-07T05:34:19;1.90;98.30
2893;DHT22;1456;51.840;12.184;2023-04-07T05:36:45;2.00;98.30
2893;DHT22;1456;51.840;12.184;2023-04-07T05:39:10;2.10;98.00
2893;DHT22;1456;51.840;12.184;2023-04-07T05:41:46;2.20;98.10
2893;DHT22;1456;51.840;12.184;2023-04-07T05:44:13;2.30;97.80
2893;DHT22;1456;51.840;12.184;2023-04-07T05:49:12;2.50;97.30
2893;DHT22;1456;51.840;12.184;2023-04-07T05:57:04;2.90;97.00
2893;DHT22;1456;51.840;12.184;2023-04-07T05:59:30;3.00;96.60
2893;DHT22;1456;51.840;12.184;2023-04-07T06:01:55;3.10;96.40
2893;DHT22;1456;51.840;12.184;2023-04-07T06:04:24;3.20;96.40
2893;DHT22;1456;51.840;12.184;2023-04-07T06:09:23;3.40;96.00
2893;DHT22;1456;51.840;12.184;2023-04-07T06:14:19;3.60;95.90
2893;DHT22;1456;51.840;12.184;2023-04-07T06:16:45;3.70;95.70
2893;DHT22;1456;51.840;12.184;2023-04-07T06:19:10;3.90;95.70
2893;DHT22;1456;51.840;12.184;2023-04-07T06:21:36;3.90;95.50
2893;DHT22;1456;51.840;12.184;2023-04-07T06:24:06;4.00;95.50
2893;DHT22;1456;51.840;12.184;2023-04-07T06:31:49;4.20;94.70
2893;DHT22;1456;51.840;12.184;2023-04-07T06:34:16;4.40;94.60
2893;DHT22;1456;51.840;12.184;2023-04-07T06:39:19;4.80;94.20
2893;DHT22;1456;51.840;12.184;2023-04-07T06:41:56;5.20;94.40
2893;DHT22;1456;51.840;12.184;2023-04-07T06:44:22;5.50;93.70
2893;DHT22;1456;51.840;12.184;2023-04-07T06:46:49;5.90;93.20
2893;DHT22;1456;51.840;12.184;2023-04-07T06:49:22;6.30;92.40
2893;DHT22;1456;51.840;12.184;2023-04-07T06:51:48;6.60;92.30
2893;DHT22;1456;51.840;12.184;2023-04-07T06:54:20;7.00;91.70
2893;DHT22;1456;51.840;12.184;2023-04-07T06:56:46;7.40;91.10
2893;DHT22;1456;51.840;12.184;2023-04-07T06:59:11;7.80;91.00
2893;DHT22;1456;51.840;12.184;2023-04-07T07:01:37;8.10;89.10
2893;DHT22;1456;51.840;12.184;2023-04-07T07:04:03;8.30;89.70
2893;DHT22;1456;51.840;12.184;2023-04-07T07:06:30;8.70;87.90
2893;DHT22;1456;51.840;12.184;2023-04-07T07:08:56;9.10;86.00
2893;DHT22;1456;51.840;12.184;2023-04-07T07:11:21;9.50;86.80
2893;DHT22;1456;51.840;12.184;2023-04-07T07:13:48;9.70;83.90
2893;DHT22;1456;51.840;12.184;2023-04-07T07:16:14;9.90;82.40
2893;DHT22;1456;51.840;12.184;2023-04-07T07:18:39;10.00;80.80
2893;DHT22;1456;51.840;12.184;2023-04-07T07:21:05;10.10;81.10
2893;DHT22;1456;51.840;12.184;2023-04-07T07:23:33;10.10;76.00
2893;DHT22;1456;51.840;12.184;2023-04-07T07:25:59;10.00;78.60
2893;DHT22;1456;51.840;12.184;2023-04-07T07:30:55;10.10;80.00
2893;DHT22;1456;51.840;12.184;2023-04-07T07:33:21;10.20;77.60
2893;DHT22;1456;51.840;12.184;2023-04-07T07:35:47;10.00;79.60
2893;DHT22;1456;51.840;12.184;2023-04-07T07:38:12;10.00;78.80
2893;DHT22;1456;51.840;12.184;2023-04-07T07:40:39;10.00;79.20
2893;DHT22;1456;51.840;12.184;2023-04-07T07:43:05;10.20;78.30
2893;DHT22;1456;51.840;12.184;2023-04-07T07:45:31;10.30;76.70
2893;DHT22;1456;51.840;12.184;2023-04-07T07:47:57;10.60;78.70
2893;DHT22;1456;51.840;12.184;2023-04-07T07:50:24;10.90;79.20
2893;DHT22;1456;51.840;12.184;2023-04-07T07:52:51;11.20;76.40
2893;DHT22;1456;51.840;12.184;2023-04-07T07:55:17;11.40;71.90
2893;DHT22;1456;51.840;12.184;2023-04-07T07:57:42;11.60;73.80
2893;DHT22;1456;51.840;12.184;2023-04-07T08:00:08;11.80;74.60
2893;DHT22;1456;51.840;12.184;2023-04-07T08:02:34;12.00;73.20
2893;DHT22;1456;51.840;12.184;2023-04-07T08:05:01;12.20;73.10
2893;DHT22;1456;51.840;12.184;2023-04-07T08:07:27;12.20;69.60
2893;DHT22;1456;51.840;12.184;2023-04-07T08:09:54;12.10;69.20
2893;DHT22;1456;51.840;12.184;2023-04-07T08:12:20;12.00;71.30
2893;DHT22;1456;51.840;12.184;2023-04-07T08:17:15;11.90;67.00
2893;DHT22;1456;51.840;12.184;2023-04-07T08:19:42;11.80;68.20
2893;DHT22;1456;51.840;12.184;2023-04-07T08:22:09;11.80;70.60
2893;DHT22;1456;51.840;12.184;2023-04-07T08:24:35;12.00;70.00
2893;DHT22;1456;51.840;12.184;2023-04-07T08:27:01;12.20;67.50
2893;DHT22;1456;51.840;12.184;2023-04-07T08:29:33;12.40;68.30
2893;DHT22;1456;51.840;12.184;2023-04-07T08:31:58;12.50;69.50
2893;DHT22;1456;51.840;12.184;2023-04-07T08:34:24;12.60;67.10
2893;DHT22;1456;51.840;12.184;2023-04-07T08:36:50;12.80;67.40
2893;DHT22;1456;51.840;12.184;2023-04-07T08:39:15;12.80;67.30
2893;DHT22;1456;51.840;12.184;2023-04-07T08:41:41;12.90;67.90
2893;DHT22;1456;51.840;12.184;2023-04-07T08:44:10;12.90;66.30
2893;DHT22;1456;51.840;12.184;2023-04-07T08:46:39;12.80;64.50
2893;DHT22;1456;51.840;12.184;2023-04-07T08:49:09;12.60;63.20
2893;DHT22;1456;51.840;12.184;2023-04-07T08:51:36;12.60;64.00
2893;DHT22;1456;51.840;12.184;2023-04-07T08:54:10;12.70;65.30
2893;DHT22;1456;51.840;12.184;2023-04-07T08:56:39;12.60;61.10
2893;DHT22;1456;51.840;12.184;2023-04-07T08:59:07;12.70;62.40
2893;DHT22;1456;51.840;12.184;2023-04-07T09:01:39;12.80;61.50
2893;DHT22;1456;51.840;12.184;2023-04-07T09:04:06;13.00;64.70
2893;DHT22;1456;51.840;12.184;2023-04-07T09:06:33;13.30;61.20
2893;DHT22;1456;51.840;12.184;2023-04-07T09:09:00;13.50;63.00
2893;DHT22;1456;51.840;12.184;2023-04-07T09:11:27;13.90;61.50
2893;DHT22;1456;51.840;12.184;2023-04-07T09:13:53;14.10;60.10
2893;DHT22;1456;51.840;12.184;2023-04-07T09:16:20;14.50;61.40
2893;DHT22;1456;51.840;12.184;2023-04-07T09:18:46;15.00;58.90
2893;DHT22;1456;51.840;12.184;2023-04-07T09:21:13;15.20;59.60
2893;DHT22;1456;51.840;12.184;2023-04-07T09:23:41;15.50;59.30
2893;DHT22;1456;51.840;12.184;2023-04-07T09:26:26;15.70;58.50
2893;DHT22;1456;51.840;12.184;2023-04-07T09:29:00;16.00;59.40
2893;DHT22;1456;51.840;12.184;2023-04-07T09:31:48;16.20;56.50
2893;DHT22;1456;51.840;12.184;2023-04-07T09:36:49;16.60;55.30
2893;DHT22;1456;51.840;12.184;2023-04-07T09:39:24;16.90;53.50
2893;DHT22;1456;51.840;12.184;2023-04-07T09:41:50;17.00;54.60
2893;DHT22;1456;51.840;12.184;2023-04-07T09:44:17;17.30;57.00
2893;DHT22;1456;51.840;12.184;2023-04-07T09:46:55;17.40;56.30
2893;DHT22;1456;51.840;12.184;2023-04-07T09:49:24;17.50;53.40
2893;DHT22;1456;51.840;12.184;2023-04-07T09:51:54;17.40;52.10
2893;DHT22;1456;51.840;12.184;2023-04-07T09:54:40;17.50;54.90
2893;DHT22;1456;51.840;12.184;2023-04-07T09:57:10;17.90;51.30
2893;DHT22;1456;51.840;12.184;2023-04-07T09:59:41;18.30;53.20
2893;DHT22;1456;51.840;12.184;2023-04-07T10:02:11;18.50;51.50
2893;DHT22;1456;51.840;12.184;2023-04-07T10:04:37;18.60;50.10
2893;DHT22;1456;51.840;12.184;2023-04-07T10:07:05;18.80;51.40
2893;DHT22;1456;51.840;12.184;2023-04-07T10:09:30;19.10;51.40
2893;DHT22;1456;51.840;12.184;2023-04-07T10:11:57;19.50;50.70
2893;DHT22;1456;51.840;12.184;2023-04-07T10:14:31;19.50;49.60
2893;DHT22;1456;51.840;12.184;2023-04-07T10:17:00;19.60;50.60
2893;DHT22;1456;51.840;12.184;2023-04-07T10:21:56;19.80;49.60
2893;DHT22;1456;51.840;12.184;2023-04-07T10:27:03;20.10;48.10
2893;DHT22;1456;51.840;12.184;2023-04-07T10:29:33;20.20;47.50
2893;DHT22;1456;51.840;12.184;2023-04-07T10:32:00;20.50;48.60
2893;DHT22;1456;51.840;12.184;2023-04-07T10:37:11;20.70;44.90
2893;DHT22;1456;51.840;12.184;2023-04-07T10:39:39;20.50;46.60
2893;DHT22;1456;51.840;12.184;2023-04-07T10:42:05;20.50;44.80
2893;DHT22;1456;51.840;12.184;2023-04-07T10:47:07;20.70;43.40
2893;DHT22;1456;51.840;12.184;2023-04-07T10:49:33;20.80;43.60
2893;DHT22;1456;51.840;12.184;2023-04-07T10:54:37;20.60;43.00
2893;DHT22;1456;51.840;12.184;2023-04-07T10:57:07;20.90;45.70
2893;DHT22;1456;51.840;12.184;2023-04-07T10:59:34;21.00;44.70
2893;DHT22;1456;51.840;12.184;2023-04-07T11:04:45;21.00;42.60
2893;DHT22;1456;51.840;12.184;2023-04-07T11:07:12;20.70;42.20
2893;DHT22;1456;51.840;12.184;2023-04-07T11:09:38;20.60;40.80
2893;DHT22;1456;51.840;12.184;2023-04-07T11:12:05;20.40;42.30
2893;DHT22;1456;51.840;12.184;2023-04-07T11:14:31;20.10;41.20
2893;DHT22;1456;51.840;12.184;2023-04-07T11:16:58;19.80;42.80
2893;DHT22;1456;51.840;12.184;2023-04-07T11:19:27;19.90;41.30
2893;DHT22;1456;51.840;12.184;2023-04-07T11:24:44;20.20;42.30
2893;DHT22;1456;51.840;12.184;2023-04-07T11:27:12;20.30;40.80
2893;DHT22;1456;51.840;12.184;2023-04-07T11:29:38;20.20;41.40
2893;DHT22;1456;51.840;12.184;2023-04-07T11:32:04;20.30;41.50
2893;DHT22;1456;51.840;12.184;2023-04-07T11:34:33;20.70;41.30
2893;DHT22;1456;51.840;12.184;2023-04-07T11:37:18;21.40;43.00
2893;DHT22;1456;51.840;12.184;2023-04-07T11:39:50;21.60;41.50
2893;DHT22;1456;51.840;12.184;2023-04-07T11:42:15;21.70;38.70
2893;DHT22;1456;51.840;12.184;2023-04-07T11:44:44;21.60;42.40
2893;DHT22;1456;51.840;12.184;2023-04-07T11:47:10;21.90;42.20
2893;DHT22;1456;51.840;12.184;2023-04-07T11:49:42;22.60;40.10
2893;DHT22;1456;51.840;12.184;2023-04-07T11:52:08;23.10;39.50
2893;DHT22;1456;51.840;12.184;2023-04-07T11:54:44;24.00;38.60
2893;DHT22;1456;51.840;12.184;2023-04-07T11:57:26;24.90;40.50
2893;DHT22;1456;51.840;12.184;2023-04-07T12:00:04;24.30;37.40
2893;DHT22;1456;51.840;12.184;2023-04-07T12:02:31;22.80;37.00
2893;DHT22;1456;51.840;12.184;2023-04-07T12:07:27;22.80;41.40
2893;DHT22;1456;51.840;12.184;2023-04-07T12:09:54;23.30;39.30
2893;DHT22;1456;51.840;12.184;2023-04-07T12:12:29;23.80;39.00
2893;DHT22;1456;51.840;12.184;2023-04-07T12:14:57;24.00;37.60
2893;DHT22;1456;51.840;12.184;2023-04-07T12:17:23;23.60;37.10
2893;DHT22;1456;51.840;12.184;2023-04-07T12:19:49;23.00;37.50
2893;DHT22;1456;51.840;12.184;2023-04-07T12:22:14;22.60;36.80
2893;DHT22;1456;51.840;12.184;2023-04-07T12:24:40;22.40;38.10
2893;DHT22;1456;51.840;12.184;2023-04-07T12:27:06;22.20;37.50
2893;DHT22;1456;51.840;12.184;2023-04-07T12:29:32;22.20;37.40
2893;DHT22;1456;51.840;12.184;2023-04-07T12:31:58;22.40;39.00
2893;DHT22;1456;51.840;12.184;2023-04-07T12:36:53;22.10;37.40
2893;DHT22;1456;51.840;12.184;2023-04-07T12:39:21;22.30;37.70
2893;DHT22;1456;51.840;12.184;2023-04-07T12:41:46;21.90;37.40
2893;DHT22;1456;51.840;12.184;2023-04-07T12:44:14;21.70;36.40
2893;DHT22;1456;51.840;12.184;2023-04-07T12:46:40;21.60;34.80
2893;DHT22;1456;51.840;12.184;2023-04-07T12:49:08;21.80;37.80
2893;DHT22;1456;51.840;12.184;2023-04-07T12:51:34;22.30;37.70
2893;DHT22;1456;51.840;12.184;2023-04-07T12:54:00;22.70;37.10
2893;DHT22;1456;51.840;12.184;2023-04-07T12:56:26;22.80;36.00
2893;DHT22;1456;51.840;12.184;2023-04-07T12:58:52;22.50;37.70
2893;DHT22;1456;51.840;12.184;2023-04-07T13:01:18;22.00;36.60
2893;DHT22;1456;51.840;12.184;2023-04-07T13:03:44;21.90;37.70
2893;DHT22;1456;51.840;12.184;2023-04-07T13:06:10;22.10;40.00
2893;DHT22;1456;51.840;12.184;2023-04-07T13:08:36;22.60;39.10
2893;DHT22;1456;51.840;12.184;2023-04-07T13:11:02;22.80;37.10
2893;DHT22;1456;51.840;12.184;2023-04-07T13:13:29;22.70;37.40
2893;DHT22;1456;51.840;12.184;2023-04-07T13:15:56;22.90;35.40
2893;DHT22;1456;51.840;12.184;2023-04-07T13:18:26;23.20;36.10
2893;DHT22;1456;51.840;12.184;2023-04-07T13:20:55;24.10;35.40
2893;DHT22;1456;51.840;12.184;2023-04-07T13:23:20;24.70;34.60
2893;DHT22;1456;51.840;12.184;2023-04-07T13:25:48;24.70;35.50
2893;DHT22;1456;51.840;12.184;2023-04-07T13:28:14;24.60;38.10
2893;DHT22;1456;51.840;12.184;2023-04-07T13:30:45;24.50;37.60
2893;DHT22;1456;51.840;12.184;2023-04-07T13:33:10;24.60;35.60
2893;DHT22;1456;51.840;12.184;2023-04-07T13:35:36;23.80;35.30
2893;DHT22;1456;51.840;12.184;2023-04-07T13:38:03;24.30;36.30
2893;DHT22;1456;51.840;12.184;2023-04-07T13:40:30;25.00;35.60
2893;DHT22;1456;51.840;12.184;2023-04-07T13:42:56;25.00;35.50
2893;DHT22;1456;51.840;12.184;2023-04-07T13:45:25;25.10;34.10
2893;DHT22;1456;51.840;12.184;2023-04-07T13:47:51;24.30;36.80
2893;DHT22;1456;51.840;12.184;2023-04-07T13:50:19;23.60;35.10
2893;DHT22;1456;51.840;12.184;2023-04-07T13:52:45;23.20;36.30
2893;DHT22;1456;51.840;12.184;2023-04-07T13:55:13;22.50;36.00
2893;DHT22;1456;51.840;12.184;2023-04-07T13:57:40;21.60;35.80
2893;DHT22;1456;51.840;12.184;2023-04-07T14:00:06;20.90;36.10
2893;DHT22;1456;51.840;12.184;2023-04-07T14:02:31;20.40;37.80
2893;DHT22;1456;51.840;12.184;2023-04-07T14:04:59;20.60;39.10
2893;DHT22;1456;51.840;12.184;2023-04-07T14:07:28;22.30;39.90
2893;DHT22;1456;51.840;12.184;2023-04-07T14:09:53;25.10;38.40
2893;DHT22;1456;51.840;12.184;2023-04-07T14:12:21;27.90;34.70
2893;DHT22;1456;51.840;12.184;2023-04-07T14:14:47;29.40;32.00
2893;DHT22;1456;51.840;12.184;2023-04-07T14:17:16;30.00;32.30
2893;DHT22;1456;51.840;12.184;2023-04-07T14:19:42;30.60;32.60
2893;DHT22;1456;51.840;12.184;2023-04-07T14:22:07;31.70;30.00
2893;DHT22;1456;51.840;12.184;2023-04-07T14:24:33;32.30;30.30
2893;DHT22;1456;51.840;12.184;2023-04-07T14:26:59;32.00;29.30
2893;DHT22;1456;51.840;12.184;2023-04-07T14:29:26;32.00;30.50
2893;DHT22;1456;51.840;12.184;2023-04-07T14:31:51;31.90;29.60
2893;DHT22;1456;51.840;12.184;2023-04-07T14:34:17;30.40;31.20
2893;DHT22;1456;51.840;12.184;2023-04-07T14:36:52;30.50;29.90
2893;DHT22;1456;51.840;12.184;2023-04-07T14:39:21;30.20;30.00
2893;DHT22;1456;51.840;12.184;2023-04-07T14:41:47;29.70;29.50
2893;DHT22;1456;51.840;12.184;2023-04-07T14:44:13;28.80;28.90
2893;DHT22;1456;51.840;12.184;2023-04-07T14:46:38;28.60;29.10
2893;DHT22;1456;51.840;12.184;2023-04-07T14:49:05;28.70;28.70
2893;DHT22;1456;51.840;12.184;2023-04-07T14:51:31;28.60;29.30
2893;DHT22;1456;51.840;12.184;2023-04-07T14:53:57;29.20;29.70
2893;DHT22;1456;51.840;12.184;2023-04-07T14:56:23;30.20;29.70
2893;DHT22;1456;51.840;12.184;2023-04-07T14:58:49;31.30;28.70
2893;DHT22;1456;51.840;12.184;2023-04-07T15:01:16;31.60;28.40
2893;DHT22;1456;51.840;12.184;2023-04-07T15:03:42;31.00;28.30
2893;DHT22;1456;51.840;12.184;2023-04-07T15:06:09;29.30;27.30
2893;DHT22;1456;51.840;12.184;2023-04-07T15:08:35;27.50;28.50
2893;DHT22;1456;51.840;12.184;2023-04-07T15:11:10;27.30;27.80
2893;DHT22;1456;51.840;12.184;2023-04-07T15:13:35;27.60;28.20
2893;DHT22;1456;51.840;12.184;2023-04-07T15:16:10;26.80;27.60
2893;DHT22;1456;51.840;12.184;2023-04-07T15:18:38;25.20;28.30
2893;DHT22;1456;51.840;12.184;2023-04-07T15:21:05;23.80;28.00
2893;DHT22;1456;51.840;12.184;2023-04-07T15:23:32;22.30;28.80
2893;DHT22;1456;51.840;12.184;2023-04-07T15:25:58;20.80;28.40
2893;DHT22;1456;51.840;12.184;2023-04-07T15:28:24;19.80;29.40
2893;DHT22;1456;51.840;12.184;2023-04-07T15:30:50;19.40;29.30
2893;DHT22;1456;51.840;12.184;2023-04-07T15:33:16;19.00;28.90
2893;DHT22;1456;51.840;12.184;2023-04-07T15:35:43;18.80;30.10
2893;DHT22;1456;51.840;12.184;2023-04-07T15:38:09;18.70;30.90
2893;DHT22;1456;51.840;12.184;2023-04-07T15:40:36;18.80;29.40
2893;DHT22;1456;51.840;12.184;2023-04-07T15:43:05;19.00;32.30
2893;DHT22;1456;51.840;12.184;2023-04-07T15:45:39;18.90;30.50
2893;DHT22;1456;51.840;12.184;2023-04-07T15:48:09;18.50;30.70
2893;DHT22;1456;51.840;12.184;2023-04-07T15:50:35;18.30;31.40
2893;DHT22;1456;51.840;12.184;2023-04-07T15:53:02;18.30;29.60
2893;DHT22;1456;51.840;12.184;2023-04-07T15:55:31;18.10;30.40
2893;DHT22;1456;51.840;12.184;2023-04-07T15:57:58;18.20;30.10
2893;DHT22;1456;51.840;12.184;2023-04-07T16:00:25;18.20;30.00
2893;DHT22;1456;51.840;12.184;2023-04-07T16:02:51;17.30;29.80
2893;DHT22;1456;51.840;12.184;2023-04-07T16:05:16;16.70;30.30
2893;DHT22;1456;51.840;12.184;2023-04-07T16:07:42;16.50;31.20
2893;DHT22;1456;51.840;12.184;2023-04-07T16:10:08;16.40;32.30
2893;DHT22;1456;51.840;12.184;2023-04-07T16:12:34;16.30;32.50
2893;DHT22;1456;51.840;12.184;2023-04-07T16:15:07;15.80;31.30
2893;DHT22;1456;51.840;12.184;2023-04-07T16:17:36;15.20;32.80
2893;DHT22;1456;51.840;12.184;2023-04-07T16:20:07;14.50;32.70
2893;DHT22;1456;51.840;12.184;2023-04-07T16:22:45;14.20;33.60
2893;DHT22;1456;51.840;12.184;2023-04-07T16:25:16;13.90;34.30
2893;DHT22;1456;51.840;12.184;2023-04-07T16:27:43;13.60;35.20
2893;DHT22;1456;51.840;12.184;2023-04-07T16:30:11;13.40;35.40
2893;DHT22;1456;51.840;12.184;2023-04-07T16:32:40;13.30;35.80
2893;DHT22;1456;51.840;12.184;2023-04-07T16:35:11;13.10;36.20
2893;DHT22;1456;51.840;12.184;2023-04-07T16:37:40;12.90;36.70
2893;DHT22;1456;51.840;12.184;2023-04-07T16:40:08;12.70;37.50
2893;DHT22;1456;51.840;12.184;2023-04-07T16:42:34;12.50;39.00
2893;DHT22;1456;51.840;12.184;2023-04-07T16:45:01;12.30;40.00
2893;DHT22;1456;51.840;12.184;2023-04-07T16:47:28;12.20;40.50
2893;DHT22;1456;51.840;12.184;2023-04-07T16:49:55;12.10;40.50
2893;DHT22;1456;51.840;12.184;2023-04-07T16:52:23;12.00;41.10
2893;DHT22;1456;51.840;12.184;2023-04-07T16:54:49;12.20;42.50
2893;DHT22;1456;51.840;12.184;2023-04-07T16:57:16;12.20;42.50
2893;DHT22;1456;51.840;12.184;2023-04-07T16:59:42;12.20;42.50
2893;DHT22;1456;51.840;12.184;2023-04-07T17:02:09;12.10;42.70
2893;DHT22;1456;51.840;12.184;2023-04-07T17:04:39;11.90;43.30
2893;DHT22;1456;51.840;12.184;2023-04-07T17:07:05;11.60;45.00
2893;DHT22;1456;51.840;12.184;2023-04-07T17:09:32;11.50;46.30
2893;DHT22;1456;51.840;12.184;2023-04-07T17:11:58;11.30;47.00